createdAt,value
2022-09-17T00:00:03.443Z,146.61
2022-09-17T00:01:03.411Z,146.70
2022-09-17T00:02:03.543Z,146.22
2022-09-17T00:03:03.656Z,147.07
2022-09-17T00:04:03.559Z,146.97
2022-09-17T00:05:03.591Z,146.11
2022-09-17T00:06:03.610Z,146.91
2022-09-17T00:07:03.647Z,146.17
2022-09-17T00:08:03.705Z,146.92
2022-09-17T00:09:03.757Z,146.93
2022-09-17T00:10:03.746Z,146.79
2022-09-17T00:11:03.821Z,146.90
2022-09-17T00:12:03.853Z,146.88
2022-09-17T00:13:03.829Z,147.95
2022-09-17T00:14:03.838Z,147.70
2022-09-17T00:15:03.888Z,147.20
2022-09-17T00:16:04.015Z,146.49
2022-09-17T00:17:03.951Z,147.90
2022-09-17T00:18:03.992Z,147.53
2022-09-17T00:19:04.453Z,148.17
2022-09-17T00:20:04.049Z,147.69
2022-09-17T00:21:04.090Z,147.50
2022-09-17T00:22:04.127Z,146.81
2022-09-17T00:23:04.164Z,147.42
2022-09-17T00:24:04.265Z,147.86
2022-09-17T00:25:04.281Z,148.63
2022-09-17T00:26:04.289Z,147.91
2022-09-17T00:27:04.292Z,147.50
2022-09-17T00:28:04.381Z,146.95
2022-09-17T00:29:04.367Z,146.96
2022-09-17T00:30:04.396Z,147.33
2022-09-17T00:31:04.557Z,147.89
2022-09-17T00:32:04.490Z,147.56
2022-09-17T00:33:04.568Z,147.36
2022-09-17T00:34:04.554Z,147.35
2022-09-17T00:35:04.573Z,147.36
2022-09-17T00:36:04.663Z,147.01
2022-09-17T00:37:04.711Z,147.05
2022-09-17T00:38:04.751Z,146.75
2022-09-17T00:39:04.734Z,146.54
2022-09-17T00:40:04.826Z,146.89
2022-09-17T00:41:04.782Z,146.48
2022-09-17T00:42:04.823Z,146.86
2022-09-17T00:43:04.836Z,146.19
2022-09-17T00:44:04.882Z,147.27
2022-09-17T00:45:04.928Z,146.96
2022-09-17T00:46:04.991Z,147.73
2022-09-17T00:47:05.019Z,147.16
2022-09-17T00:48:05.021Z,148.54
2022-09-17T00:49:05.125Z,146.84
2022-09-17T00:50:05.112Z,147.52
2022-09-17T00:51:05.115Z,146.68
2022-09-17T00:52:05.150Z,146.44
2022-09-17T00:53:05.185Z,146.20
2022-09-17T00:54:05.221Z,147.30
2022-09-17T00:55:05.267Z,147.65
2022-09-17T00:56:05.353Z,146.38
2022-09-17T00:57:05.334Z,146.24
2022-09-17T00:58:05.350Z,146.57
2022-09-17T00:59:05.406Z,146.05
2022-09-17T01:00:05.429Z,146.46
2022-09-17T01:01:05.562Z,145.93
2022-09-17T01:02:05.569Z,145.92
2022-09-17T01:03:05.518Z,146.54
2022-09-17T01:04:05.563Z,146.61
2022-09-17T01:05:05.573Z,146.61
2022-09-17T01:06:05.614Z,146.49
2022-09-17T01:07:05.661Z,147.10
2022-09-17T01:08:05.674Z,147.86
2022-09-17T01:09:05.785Z,147.77
2022-09-17T01:10:05.765Z,147.05
2022-09-17T01:11:05.798Z,146.58
2022-09-17T01:12:05.811Z,146.94
2022-09-17T01:13:05.838Z,146.78
2022-09-17T01:14:05.881Z,147.24
2022-09-17T01:15:05.972Z,146.63
2022-09-17T01:16:06.054Z,146.90
2022-09-17T01:17:05.991Z,146.55
2022-09-17T01:18:06.008Z,146.64
2022-09-17T01:19:06.081Z,146.22
2022-09-17T01:20:06.138Z,146.43
2022-09-17T01:21:06.163Z,146.43
2022-09-17T01:22:06.153Z,146.52
2022-09-17T01:23:06.201Z,146.57
2022-09-17T01:24:06.250Z,146.45
2022-09-17T01:25:06.264Z,146.29
2022-09-17T01:26:06.302Z,146.50
2022-09-17T01:27:06.393Z,146.49
2022-09-17T01:28:06.444Z,146.40
2022-09-17T01:29:06.451Z,146.40
2022-09-17T01:30:06.444Z,146.76
2022-09-17T01:31:06.538Z,147.04
2022-09-17T01:32:06.590Z,146.49
2022-09-17T01:33:06.574Z,146.38
2022-09-17T01:34:06.613Z,146.47
2022-09-17T01:35:06.624Z,146.15
2022-09-17T01:36:06.651Z,146.22
2022-09-17T01:37:06.696Z,146.20
2022-09-17T01:38:06.728Z,146.56
2022-09-17T01:39:06.798Z,146.10
2022-09-17T01:40:06.921Z,146.51
2022-09-17T01:41:06.876Z,145.99
2022-09-17T01:42:06.870Z,146.10
2022-09-17T01:43:06.885Z,146.06
2022-09-17T01:44:06.947Z,146.14
2022-09-17T01:45:06.996Z,146.16
2022-09-17T01:46:07.130Z,146.46
2022-09-17T01:47:07.060Z,146.67
2022-09-17T01:48:07.075Z,146.04
2022-09-17T01:49:07.089Z,146.35
2022-09-17T01:50:07.162Z,146.10
2022-09-17T01:51:07.174Z,146.05
2022-09-17T01:52:07.198Z,146.58
2022-09-17T01:53:07.293Z,146.33
2022-09-17T01:54:07.278Z,147.43
2022-09-17T01:55:07.305Z,147.96
2022-09-17T01:56:07.311Z,148.08
2022-09-17T01:57:07.325Z,148.16
2022-09-17T01:58:07.367Z,148.21
2022-09-17T01:59:07.468Z,147.98
2022-09-17T02:00:07.460Z,148.10
2022-09-17T02:01:07.683Z,148.31
2022-09-17T02:02:07.648Z,148.22
2022-09-17T02:03:07.572Z,148.49
2022-09-17T02:04:07.584Z,148.59
2022-09-17T02:05:07.611Z,148.67
2022-09-17T02:06:07.655Z,148.88
2022-09-17T02:07:07.685Z,148.79
2022-09-17T02:08:07.713Z,148.79
2022-09-17T02:09:07.816Z,148.83
2022-09-17T02:10:07.814Z,148.77
2022-09-17T02:11:07.868Z,148.85
2022-09-17T02:12:07.862Z,148.88
2022-09-17T02:13:07.885Z,148.81
2022-09-17T02:14:07.931Z,148.73
2022-09-17T02:15:07.946Z,149.01
2022-09-17T02:16:08.056Z,148.79
2022-09-17T02:17:08.062Z,148.90
2022-09-17T02:18:08.198Z,149.31
2022-09-17T02:19:08.122Z,149.12
2022-09-17T02:20:08.177Z,149.11
2022-09-17T02:21:08.163Z,149.13
2022-09-17T02:22:08.189Z,149.00
2022-09-17T02:23:08.297Z,149.36
2022-09-17T02:24:08.274Z,149.17
2022-09-17T02:25:08.290Z,148.96
2022-09-17T02:26:08.295Z,149.09
2022-09-17T02:27:08.358Z,149.23
2022-09-17T02:28:08.383Z,149.38
2022-09-17T02:29:08.427Z,149.25
2022-09-17T02:30:08.512Z,149.39
2022-09-17T02:31:08.518Z,149.29
2022-09-17T02:32:08.559Z,149.33
2022-09-17T02:33:08.555Z,149.45
2022-09-17T02:34:08.646Z,149.41
2022-09-17T02:35:08.654Z,149.31
2022-09-17T02:36:08.699Z,149.16
2022-09-17T02:37:08.776Z,149.42
2022-09-17T02:38:08.765Z,149.33
2022-09-17T02:39:08.772Z,149.30
2022-09-17T02:40:08.864Z,149.50
2022-09-17T02:41:08.826Z,149.44
2022-09-17T02:42:08.854Z,149.47
2022-09-17T02:43:08.898Z,149.25
2022-09-17T02:44:08.984Z,149.32
2022-09-17T02:45:09.039Z,149.44
2022-09-17T02:46:09.051Z,149.32
2022-09-17T02:47:09.049Z,149.33
2022-09-17T02:48:09.050Z,149.29
2022-09-17T02:49:09.068Z,149.23
2022-09-17T02:50:09.114Z,149.36
2022-09-17T02:51:09.158Z,149.41
2022-09-17T02:52:09.200Z,149.37
2022-09-17T02:53:09.247Z,149.33
2022-09-17T02:54:09.355Z,149.36
2022-09-17T02:55:09.342Z,149.47
2022-09-17T02:56:09.410Z,149.46
2022-09-17T02:57:09.376Z,149.49
2022-09-17T02:58:09.484Z,149.41
2022-09-17T02:59:09.462Z,149.34
2022-09-17T03:00:09.497Z,149.36
2022-09-17T03:01:09.720Z,149.44
2022-09-17T03:02:09.645Z,149.52
2022-09-17T03:03:09.606Z,149.46
2022-09-17T03:04:09.649Z,149.57
2022-09-17T03:05:09.703Z,149.46
2022-09-17T03:06:09.703Z,149.60
2022-09-17T03:07:09.726Z,149.49
2022-09-17T03:08:09.753Z,149.51
2022-09-17T03:09:09.836Z,149.47
2022-09-17T03:10:09.818Z,149.51
2022-09-17T03:11:09.828Z,149.47
2022-09-17T03:12:09.910Z,149.47
2022-09-17T03:13:09.948Z,149.52
2022-09-17T03:14:09.955Z,149.61
2022-09-17T03:15:09.995Z,149.77
2022-09-17T03:16:10.175Z,149.52
2022-09-17T03:17:10.029Z,149.59
2022-09-17T03:18:10.107Z,149.65
2022-09-17T03:19:10.101Z,149.60
2022-09-17T03:20:10.155Z,149.58
2022-09-17T03:21:10.252Z,149.56
2022-09-17T03:22:10.267Z,149.50
2022-09-17T03:23:10.264Z,149.49
2022-09-17T03:24:10.346Z,149.76
2022-09-17T03:25:10.398Z,149.60
2022-09-17T03:26:10.414Z,149.69
2022-09-17T03:27:10.396Z,149.60
2022-09-17T03:28:10.504Z,6563.19
2022-09-17T03:29:10.547Z,6562.76
2022-09-17T03:30:10.530Z,6562.25
2022-09-17T03:31:10.623Z,6562.43
2022-09-17T03:32:10.579Z,6562.61
2022-09-17T03:33:10.608Z,6561.98
2022-09-17T03:34:10.629Z,6561.76
2022-09-17T03:35:10.688Z,6561.31
2022-09-17T03:36:10.725Z,6560.88
2022-09-17T03:37:10.753Z,6561.14
2022-09-17T03:38:10.852Z,6561.58
2022-09-17T03:39:10.833Z,6560.98
2022-09-17T03:40:10.913Z,6561.59
2022-09-17T03:41:10.956Z,6561.22
2022-09-17T03:42:10.930Z,6561.68
2022-09-17T03:43:11.007Z,6561.38
2022-09-17T03:44:11.010Z,6560.83
2022-09-17T03:45:11.038Z,6560.48
2022-09-17T03:46:11.156Z,6559.77
2022-09-17T03:47:11.079Z,6560.07
2022-09-17T03:48:11.160Z,6560.17
2022-09-17T03:49:11.151Z,6561.15
2022-09-17T03:50:11.185Z,6561.13
2022-09-17T03:51:11.215Z,6561.17
2022-09-17T03:52:11.251Z,6561.19
2022-09-17T03:53:11.283Z,6561.12
2022-09-17T03:54:11.316Z,6560.73
2022-09-17T03:55:11.346Z,6560.44
2022-09-17T03:56:11.371Z,6560.85
2022-09-17T03:57:11.422Z,6561.01
2022-09-17T03:58:11.475Z,6560.96
2022-09-17T03:59:11.503Z,6561.12
2022-09-17T04:00:11.557Z,6560.95
2022-09-17T04:01:11.686Z,6561.49
2022-09-17T04:02:11.780Z,6561.50
2022-09-17T04:03:11.655Z,6561.29
2022-09-17T04:04:11.643Z,6561.67
2022-09-17T04:05:11.673Z,6562.02
2022-09-17T04:06:11.738Z,6561.87
2022-09-17T04:07:11.797Z,6561.29
2022-09-17T04:08:11.791Z,6561.88
2022-09-17T04:09:11.798Z,6562.29
2022-09-17T04:10:11.907Z,6562.46
2022-09-17T04:11:11.901Z,6562.08
2022-09-17T04:12:11.907Z,6560.86
2022-09-17T04:13:11.942Z,6561.36
2022-09-17T04:14:11.982Z,6561.91
2022-09-17T04:15:12.012Z,6562.52
2022-09-17T04:16:12.126Z,6562.36
2022-09-17T04:17:12.072Z,6562.33
2022-09-17T04:18:12.100Z,6562.29
2022-09-17T04:19:12.136Z,6562.64
2022-09-17T04:20:12.188Z,6564.65
2022-09-17T04:21:12.207Z,6564.21
2022-09-17T04:22:12.249Z,129.71
2022-09-17T04:23:12.348Z,105.85
2022-09-17T04:24:12.330Z, 88.85
2022-09-17T04:25:12.352Z, 81.28
2022-09-17T04:26:12.389Z, 74.45
2022-09-17T04:27:12.417Z, 68.85
2022-09-17T04:28:12.508Z, 64.68
2022-09-17T04:29:12.492Z, 62.07
2022-09-17T04:30:12.580Z, 56.15
2022-09-17T04:31:12.687Z, 56.47
2022-09-17T04:32:12.604Z, 54.93
2022-09-17T04:33:12.639Z, 53.40
2022-09-17T04:34:12.682Z, 51.92
2022-09-17T04:35:12.721Z, 51.27
2022-09-17T04:36:12.742Z, 50.28
2022-09-17T04:37:12.771Z, 49.33
2022-09-17T04:38:12.862Z, 48.52
2022-09-17T04:39:12.905Z, 48.01
2022-09-17T04:40:12.954Z, 47.42
2022-09-17T04:41:12.911Z, 47.10
2022-09-17T04:42:12.945Z, 46.13
2022-09-17T04:43:12.990Z, 45.78
2022-09-17T04:44:13.008Z, 45.48
2022-09-17T04:45:13.018Z, 43.93
2022-09-17T04:46:13.104Z, 43.27
2022-09-17T04:47:13.077Z, 42.51
2022-09-17T04:48:13.110Z, 42.18
2022-09-17T04:49:13.135Z, 42.16
2022-09-17T04:50:13.195Z, 41.82
2022-09-17T04:51:13.220Z, 41.45
2022-09-17T04:52:13.292Z, 40.55
2022-09-17T04:53:13.290Z, 39.95
2022-09-17T04:54:13.317Z, 39.51
2022-09-17T04:55:13.345Z, 38.98
2022-09-17T04:56:13.384Z, 38.73
2022-09-17T04:57:13.417Z, 38.39
2022-09-17T04:58:13.522Z, 37.95
2022-09-17T04:59:13.505Z, 37.73
2022-09-17T05:00:13.582Z, 37.39
2022-09-17T05:01:13.656Z, 37.40
2022-09-17T05:02:13.637Z, 37.18
2022-09-17T05:03:13.620Z, 36.86
2022-09-17T05:04:13.656Z, 36.85
2022-09-17T05:05:13.731Z, 36.60
2022-09-17T05:06:13.723Z, 36.67
2022-09-17T05:07:14.023Z, 36.65
2022-09-17T05:08:13.808Z, 36.49
2022-09-17T05:09:13.827Z, 36.43
2022-09-17T05:10:13.914Z, 36.29
2022-09-17T05:11:13.898Z, 35.88
2022-09-17T05:12:13.995Z, 35.72
2022-09-17T05:13:14.030Z, 35.67
2022-09-17T05:14:14.023Z, 35.87
2022-09-17T05:15:14.099Z, 35.66
2022-09-17T05:16:14.283Z, 35.53
2022-09-17T05:17:14.091Z, 35.48
2022-09-17T05:18:14.133Z, 35.53
2022-09-17T05:19:14.158Z, 35.37
2022-09-17T05:20:14.212Z, 35.37
2022-09-17T05:21:14.309Z, 35.58
2022-09-17T05:22:16.428Z, 35.21
2022-09-17T05:23:14.339Z, 35.31
2022-09-17T05:24:14.413Z, 35.33
2022-09-17T05:25:14.382Z, 35.48
2022-09-17T05:26:14.407Z, 35.50
2022-09-17T05:27:14.446Z, 35.28
2022-09-17T05:28:14.480Z, 35.38
2022-09-17T05:29:14.592Z, 35.53
2022-09-17T05:30:14.576Z, 35.49
2022-09-17T05:31:14.640Z, 35.31
2022-09-17T05:32:14.605Z, 35.39
2022-09-17T05:33:14.646Z, 35.49
2022-09-17T05:34:14.770Z, 35.46
2022-09-17T05:35:14.798Z, 35.43
2022-09-17T05:36:14.780Z, 35.54
2022-09-17T05:37:14.878Z, 35.55
2022-09-17T05:38:14.851Z, 35.50
2022-09-17T05:39:14.926Z, 35.51
2022-09-17T05:40:15.014Z, 35.44
2022-09-17T05:41:14.926Z, 35.40
2022-09-17T05:42:14.976Z, 35.39
2022-09-17T05:43:15.015Z, 35.41
2022-09-17T05:44:18.001Z, 35.46
2022-09-17T05:45:15.074Z, 35.46
2022-09-17T05:46:15.258Z, 35.64
2022-09-17T05:47:15.158Z, 35.68
2022-09-17T05:48:15.168Z, 35.62
2022-09-17T05:49:15.194Z, 35.80
2022-09-17T05:50:15.233Z, 35.66
2022-09-17T05:51:15.282Z, 35.81
2022-09-17T05:52:15.317Z, 35.84
2022-09-17T05:53:15.422Z, 35.95
2022-09-17T05:54:15.398Z, 36.07
2022-09-17T05:55:15.441Z, 35.95
2022-09-17T05:56:15.491Z, 36.07
2022-09-17T05:57:15.489Z, 35.98
2022-09-17T05:58:15.516Z, 36.11
2022-09-17T05:59:15.594Z, 36.43
2022-09-17T06:00:15.579Z, 36.25
2022-09-17T06:01:15.627Z, 36.17
2022-09-17T06:02:15.812Z, 36.12
2022-09-17T06:03:15.766Z, 35.97
2022-09-17T06:04:15.705Z, 35.98
2022-09-17T06:05:15.734Z, 35.86
2022-09-17T06:06:15.777Z, 35.83
2022-09-17T06:07:15.818Z, 35.83
2022-09-17T06:08:15.852Z, 35.73
2022-09-17T06:09:15.871Z, 35.83
2022-09-17T06:10:15.895Z, 35.91
2022-09-17T06:11:15.919Z, 35.81
2022-09-17T06:12:15.952Z, 35.89
2022-09-17T06:13:16.080Z, 35.74
2022-09-17T06:14:16.105Z, 35.93
2022-09-17T06:15:16.113Z, 35.92
2022-09-17T06:16:16.148Z, 36.10
2022-09-17T06:17:19.094Z, 36.40
2022-09-17T06:18:16.189Z, 36.48
2022-09-17T06:19:16.214Z, 36.42
2022-09-17T06:20:16.273Z, 36.48
2022-09-17T06:21:16.288Z, 36.56
2022-09-17T06:22:16.315Z, 36.61
2022-09-17T06:23:16.409Z, 36.66
2022-09-17T06:24:16.406Z, 36.78
2022-09-17T06:25:16.432Z, 36.68
2022-09-17T06:26:16.457Z, 36.73
2022-09-17T06:27:16.471Z, 36.75
2022-09-17T06:28:16.530Z, 36.88
2022-09-17T06:29:16.572Z, 36.83
2022-09-17T06:30:16.680Z, 37.04
2022-09-17T06:31:16.721Z, 37.15
2022-09-17T06:32:16.683Z, 37.04
2022-09-17T06:33:16.708Z, 37.05
2022-09-17T06:34:16.750Z, 37.14
2022-09-17T06:35:16.758Z, 37.04
2022-09-17T06:36:16.791Z, 37.06
2022-09-17T06:37:16.859Z, 36.96
2022-09-17T06:38:16.939Z, 37.05
2022-09-17T06:39:16.919Z, 37.03
2022-09-17T06:40:17.047Z, 36.99
2022-09-17T06:41:17.037Z, 36.88
2022-09-17T06:42:17.028Z, 37.02
2022-09-17T06:43:17.050Z, 36.97
2022-09-17T06:44:17.132Z, 37.02
2022-09-17T06:45:17.192Z, 36.81
2022-09-17T06:46:17.225Z, 36.57
2022-09-17T06:47:17.247Z, 36.75
2022-09-17T06:48:17.245Z, 36.88
2022-09-17T06:49:17.256Z, 36.79
2022-09-17T06:50:17.274Z, 36.78
2022-09-17T06:51:17.336Z, 36.78
2022-09-17T06:52:17.363Z, 36.73
2022-09-17T06:53:17.399Z, 36.77
2022-09-17T06:54:17.511Z, 36.83
2022-09-17T06:55:17.530Z, 36.86
2022-09-17T06:56:17.521Z, 36.83
2022-09-17T06:57:17.554Z, 36.86
2022-09-17T06:58:17.560Z, 36.89
2022-09-17T06:59:17.607Z, 36.95
2022-09-17T07:00:17.650Z, 37.00
2022-09-17T07:01:17.777Z, 37.05
2022-09-17T07:02:17.791Z, 37.07
2022-09-17T07:03:22.463Z, 37.26
2022-09-17T07:04:17.774Z, 37.16
2022-09-17T07:05:17.852Z, 37.23
2022-09-17T07:06:17.845Z, 37.11
2022-09-17T07:07:17.893Z, 37.13
2022-09-17T07:08:17.977Z, 37.39
2022-09-17T07:09:18.010Z, 37.40
2022-09-17T07:10:18.030Z, 37.39
2022-09-17T07:11:18.001Z, 37.46
2022-09-17T07:12:18.103Z, 37.93
2022-09-17T07:13:18.074Z, 37.90
2022-09-17T07:14:18.133Z, 37.84
2022-09-17T07:15:18.140Z, 37.94
2022-09-17T07:16:18.333Z, 38.00
2022-09-17T07:17:18.261Z, 37.97
2022-09-17T07:18:18.261Z, 37.84
2022-09-17T07:19:18.316Z, 38.00
2022-09-17T07:20:18.398Z, 37.84
2022-09-17T07:21:18.375Z, 37.96
2022-09-17T07:22:18.395Z, 37.94
2022-09-17T07:23:18.452Z, 37.87
2022-09-17T07:24:18.488Z, 38.12
2022-09-17T07:25:18.523Z, 37.88
2022-09-17T07:26:18.617Z, 37.72
2022-09-17T07:27:18.646Z, 37.70
2022-09-17T07:28:18.642Z, 37.58
2022-09-17T07:29:18.641Z, 37.65
2022-09-17T07:30:18.687Z, 37.46
2022-09-17T07:31:18.767Z, 37.53
2022-09-17T07:32:18.842Z, 37.56
2022-09-17T07:33:18.880Z, 37.72
2022-09-17T07:34:18.876Z, 37.75
2022-09-17T07:35:18.874Z, 37.55
2022-09-17T07:36:18.959Z, 37.76
2022-09-17T07:37:18.947Z, 37.72
2022-09-17T07:38:18.965Z, 37.87
2022-09-17T07:39:19.064Z, 37.76
2022-09-17T07:40:19.129Z, 37.88
2022-09-17T07:41:19.132Z, 38.01
2022-09-17T07:42:19.187Z, 38.08
2022-09-17T07:43:19.156Z, 37.90
2022-09-17T07:44:19.181Z, 37.95
2022-09-17T07:45:19.243Z, 38.21
2022-09-17T07:46:19.431Z, 38.03
2022-09-17T07:47:19.362Z, 38.19
2022-09-17T07:48:19.386Z, 38.20
2022-09-17T07:49:19.379Z, 38.05
2022-09-17T07:50:19.408Z, 38.21
2022-09-17T07:51:19.435Z, 37.99
2022-09-17T07:52:19.495Z, 38.08
2022-09-17T07:53:19.691Z, 38.07
2022-09-17T07:54:19.568Z, 38.21
2022-09-17T07:55:19.599Z, 37.32
2022-09-17T07:56:19.643Z, 37.83
2022-09-17T07:57:19.723Z, 37.85
2022-09-17T07:58:19.698Z, 36.25
2022-09-17T07:59:19.726Z, 36.18
2022-09-17T08:00:19.795Z, 37.56
2022-09-17T08:01:19.927Z, 36.88
2022-09-17T08:02:23.942Z, 37.33
2022-09-17T08:03:19.908Z, 37.86
2022-09-17T08:04:19.943Z, 38.51
2022-09-17T08:05:19.970Z, 39.04
2022-09-17T08:06:20.001Z, 38.49
2022-09-17T08:07:20.063Z, 38.24
2022-09-17T08:08:21.333Z, 38.98
2022-09-17T08:09:20.144Z, 38.29
2022-09-17T08:10:20.142Z, 38.50
2022-09-17T08:11:38.095Z, 38.72
2022-09-17T08:12:20.217Z, 38.54
2022-09-17T08:13:20.238Z, 39.16
2022-09-17T08:14:20.266Z, 39.26
2022-09-17T08:15:20.289Z, 38.43
2022-09-17T08:16:20.462Z, 38.52
2022-09-17T08:17:20.397Z, 39.13
2022-09-17T08:18:20.421Z, 38.14
2022-09-17T08:19:20.468Z, 38.72
2022-09-17T08:20:20.544Z, 38.77
2022-09-17T08:21:20.520Z, 39.10
2022-09-17T08:22:20.556Z, 39.13
2022-09-17T08:23:20.653Z, 38.39
2022-09-17T08:24:20.626Z, 37.79
2022-09-17T08:25:20.654Z, 38.12
2022-09-17T08:26:20.691Z, 39.00
2022-09-17T08:27:20.731Z, 38.82
2022-09-17T08:28:20.767Z, 39.31
2022-09-17T08:29:20.776Z, 39.35
2022-09-17T08:30:20.929Z, 39.16
2022-09-17T08:31:21.116Z, 39.12
2022-09-17T08:32:20.892Z, 39.18
2022-09-17T08:33:20.908Z, 39.19
2022-09-17T08:34:20.955Z, 39.11
2022-09-17T08:35:21.043Z, 38.91
2022-09-17T08:36:21.086Z, 39.10
2022-09-17T08:37:21.092Z, 39.41
2022-09-17T08:38:21.090Z, 39.40
2022-09-17T08:39:21.107Z, 39.10
2022-09-17T08:40:21.398Z, 39.61
2022-09-17T08:41:21.218Z, 38.61
2022-09-17T08:42:21.272Z, 39.05
2022-09-17T08:43:21.270Z, 39.44
2022-09-17T08:44:21.356Z, 38.68
2022-09-17T08:45:21.352Z, 39.49
2022-09-17T08:46:21.563Z, 39.49
2022-09-17T08:47:21.405Z, 38.92
2022-09-17T08:48:21.417Z, 39.10
2022-09-17T08:49:21.479Z, 39.48
2022-09-17T08:50:21.503Z, 39.55
2022-09-17T08:51:21.596Z, 39.53
2022-09-17T08:52:21.581Z, 39.09
2022-09-17T08:53:21.654Z, 39.47
2022-09-17T08:54:21.688Z, 39.05
2022-09-17T08:55:21.669Z, 39.65
2022-09-17T08:56:21.741Z, 38.92
2022-09-17T08:57:21.802Z, 39.38
2022-09-17T08:58:21.830Z, 39.48
2022-09-17T08:59:21.966Z, 38.95
2022-09-17T09:00:21.854Z, 39.17
2022-09-17T09:01:21.994Z, 39.83
2022-09-17T09:02:22.062Z, 39.41
2022-09-17T09:03:21.960Z, 39.34
2022-09-17T09:04:22.019Z, 39.40
2022-09-17T09:05:22.094Z, 38.68
2022-09-17T09:06:22.086Z, 38.70
2022-09-17T09:07:22.114Z, 39.12
2022-09-17T09:08:22.144Z, 39.46
2022-09-17T09:09:22.179Z, 39.38
2022-09-17T09:10:22.260Z, 39.07
2022-09-17T09:11:22.401Z, 39.39
2022-09-17T09:12:22.265Z, 39.19
2022-09-17T09:13:22.318Z, 39.12
2022-09-17T09:14:22.419Z, 39.29
2022-09-17T09:15:22.474Z, 39.36
2022-09-17T09:16:22.590Z, 38.91
2022-09-17T09:17:22.466Z, 39.42
2022-09-17T09:18:22.508Z, 39.58
2022-09-17T09:19:22.572Z, 39.04
2022-09-17T09:20:22.550Z, 39.43
2022-09-17T09:21:22.654Z, 39.08
2022-09-17T09:22:22.634Z, 39.61
2022-09-17T09:23:22.641Z, 39.32
2022-09-17T09:24:22.728Z, 39.04
2022-09-17T09:25:22.711Z, 39.24
2022-09-17T09:26:22.770Z, 39.38
2022-09-17T09:27:22.788Z, 39.09
2022-09-17T09:28:22.889Z, 38.78
2022-09-17T09:29:22.901Z, 39.23
2022-09-17T09:30:22.902Z, 38.94
2022-09-17T09:31:22.995Z, 39.46
2022-09-17T09:32:22.953Z, 39.54
2022-09-17T09:33:23.056Z, 39.26
2022-09-17T09:34:23.034Z, 39.53
2022-09-17T09:35:23.041Z, 39.21
2022-09-17T09:36:23.092Z, 39.42
2022-09-17T09:37:23.172Z, 38.96
2022-09-17T09:38:23.249Z, 39.30
2022-09-17T09:39:23.222Z, 39.49
2022-09-17T09:40:23.317Z, 39.70
2022-09-17T09:41:23.318Z, 38.87
2022-09-17T09:42:23.304Z, 39.37
2022-09-17T09:43:23.343Z, 38.57
2022-09-17T09:44:23.382Z, 38.84
2022-09-17T09:45:23.394Z, 39.05
2022-09-17T09:46:23.527Z, 38.68
2022-09-17T09:47:23.465Z, 38.43
2022-09-17T09:48:23.496Z, 39.50
2022-09-17T09:49:23.513Z, 38.67
2022-09-17T09:50:23.611Z, 39.38
2022-09-17T09:51:23.582Z, 39.85
2022-09-17T09:52:23.637Z, 39.75
2022-09-17T09:53:23.733Z, 39.42
2022-09-17T09:54:23.728Z, 39.60
2022-09-17T09:55:26.756Z, 38.19
2022-09-17T09:56:23.772Z, 39.45
2022-09-17T09:57:23.833Z, 39.50
2022-09-17T09:58:23.813Z, 39.21
2022-09-17T09:59:23.939Z, 39.09
2022-09-17T10:00:23.964Z, 38.95
2022-09-17T10:01:23.980Z, 39.34
2022-09-17T10:02:24.122Z, 38.73
2022-09-17T10:03:24.056Z, 38.05
2022-09-17T10:04:24.039Z, 39.14
2022-09-17T10:05:24.122Z, 39.77
2022-09-17T10:06:24.149Z, 39.68
2022-09-17T10:07:24.143Z, 39.79
2022-09-17T10:08:24.236Z, 39.54
2022-09-17T10:09:24.236Z, 39.43
2022-09-17T10:10:24.247Z, 39.59
2022-09-17T10:11:24.276Z, 39.37
2022-09-17T10:12:24.308Z, 39.34
2022-09-17T10:13:24.392Z, 39.30
2022-09-17T10:14:24.407Z, 39.67
2022-09-17T10:15:24.422Z, 39.73
2022-09-17T10:16:24.616Z, 39.52
2022-09-17T10:17:24.496Z, 39.48
2022-09-17T10:18:24.550Z, 39.34
2022-09-17T10:19:24.548Z, 38.98
2022-09-17T10:20:24.595Z, 39.32
2022-09-17T10:21:24.671Z, 39.74
2022-09-17T10:22:24.653Z, 38.93
2022-09-17T10:23:24.676Z, 38.57
2022-09-17T10:24:24.708Z, 39.46
2022-09-17T10:25:24.792Z, 39.05
2022-09-17T10:26:24.844Z, 39.45
2022-09-17T10:27:24.824Z, 39.28
2022-09-17T10:28:24.862Z, 39.51
2022-09-17T10:29:24.903Z, 39.62
2022-09-17T10:30:24.938Z, 39.72
2022-09-17T10:31:24.980Z, 39.50
2022-09-17T10:32:24.980Z, 38.53
2022-09-17T10:33:25.056Z, 38.91
2022-09-17T10:34:25.068Z, 39.31
2022-09-17T10:35:25.159Z, 39.44
2022-09-17T10:36:25.145Z, 38.74
2022-09-17T10:37:25.157Z, 39.25
2022-09-17T10:38:25.193Z, 39.36
2022-09-17T10:39:25.286Z, 39.32
2022-09-17T10:40:25.323Z, 39.33
2022-09-17T10:41:25.284Z, 39.59
2022-09-17T10:42:25.329Z, 39.49
2022-09-17T10:43:25.418Z, 39.03
2022-09-17T10:44:25.469Z, 39.23
2022-09-17T10:45:25.454Z, 40.07
2022-09-17T10:46:27.771Z, 39.67
2022-09-17T10:47:25.534Z, 39.47
2022-09-17T10:48:25.527Z, 39.89
2022-09-17T10:49:25.678Z, 40.05
2022-09-17T10:50:25.607Z, 39.50
2022-09-17T10:51:25.650Z, 38.39
2022-09-17T10:52:25.742Z, 39.21
2022-09-17T10:53:25.730Z, 39.29
2022-09-17T10:54:25.790Z, 39.04
2022-09-17T10:55:25.837Z, 39.35
2022-09-17T10:56:25.821Z, 39.66
2022-09-17T10:57:25.871Z, 38.53
2022-09-17T10:58:25.868Z, 39.18
2022-09-17T10:59:25.915Z, 38.35
2022-09-17T11:00:25.934Z, 39.55
2022-09-17T11:01:26.005Z, 39.53
2022-09-17T11:02:26.225Z, 39.83
2022-09-17T11:03:26.017Z, 40.07
2022-09-17T11:04:26.129Z, 39.90
2022-09-17T11:05:26.133Z, 39.94
2022-09-17T11:06:26.144Z, 39.73
2022-09-17T11:07:26.223Z, 39.92
2022-09-17T11:08:26.212Z, 39.76
2022-09-17T11:09:26.256Z, 39.41
2022-09-17T11:10:26.273Z, 39.81
2022-09-17T11:11:26.288Z, 40.03
2022-09-17T11:12:26.338Z, 40.00
2022-09-17T11:13:26.403Z, 39.98
2022-09-17T11:14:26.422Z, 39.77
2022-09-17T11:15:26.453Z, 40.06
2022-09-17T11:16:26.598Z, 39.83
2022-09-17T11:17:26.540Z, 39.83
2022-09-17T11:18:26.613Z, 39.97
2022-09-17T11:19:26.669Z, 40.04
2022-09-17T11:20:26.698Z, 39.99
2022-09-17T11:21:26.687Z, 40.24
2022-09-17T11:22:26.721Z, 40.15
2022-09-17T11:23:26.773Z, 40.00
2022-09-17T11:24:26.801Z, 39.98
2022-09-17T11:25:26.827Z, 40.09
2022-09-17T11:26:26.896Z, 40.10
2022-09-17T11:27:26.897Z, 40.30
2022-09-17T11:28:26.932Z, 40.12
2022-09-17T11:29:26.977Z, 39.83
2022-09-17T11:30:27.060Z, 40.19
2022-09-17T11:31:27.175Z, 40.02
2022-09-17T11:32:27.110Z, 39.26
2022-09-17T11:33:27.107Z, 40.19
2022-09-17T11:34:27.170Z, 39.14
2022-09-17T11:35:27.164Z, 40.02
2022-09-17T11:36:27.214Z, 39.71
2022-09-17T11:37:27.305Z, 40.23
2022-09-17T11:38:27.282Z, 40.41
2022-09-17T11:39:27.321Z, 39.89
2022-09-17T11:40:27.465Z, 39.40
2022-09-17T11:41:27.355Z, 38.87
2022-09-17T11:42:27.448Z, 39.93
2022-09-17T11:43:27.448Z, 38.60
2022-09-17T11:44:27.498Z, 39.06
2022-09-17T11:45:27.530Z, 39.55
2022-09-17T11:46:27.769Z, 39.70
2022-09-17T11:47:27.622Z, 39.50
2022-09-17T11:48:27.624Z, 39.55
2022-09-17T11:49:27.667Z, 39.74
2022-09-17T11:50:27.684Z, 39.78
2022-09-17T11:51:27.716Z, 39.66
2022-09-17T11:52:27.780Z, 39.71
2022-09-17T11:53:27.804Z, 39.73
2022-09-17T11:54:27.911Z, 39.71
2022-09-17T11:55:27.885Z, 39.64
2022-09-17T11:56:27.900Z, 39.59
2022-09-17T11:57:27.965Z, 39.55
2022-09-17T11:58:28.006Z, 39.77
2022-09-17T11:59:28.087Z, 39.63
2022-09-17T12:00:28.097Z, 39.54
2022-09-17T12:01:28.097Z, 39.87
2022-09-17T12:02:28.191Z, 39.48
2022-09-17T12:03:28.211Z, 39.74
2022-09-17T12:04:28.182Z, 39.70
2022-09-17T12:05:28.213Z, 39.56
2022-09-17T12:06:28.235Z, 39.68
2022-09-17T12:07:28.277Z, 39.73
2022-09-17T12:08:28.340Z, 39.87
2022-09-17T12:09:28.344Z, 39.70
2022-09-17T12:10:28.372Z, 39.74
2022-09-17T12:11:28.378Z, 40.08
2022-09-17T12:12:48.330Z, 39.95
2022-09-17T12:13:28.496Z, 39.93
2022-09-17T12:14:28.573Z, 39.64
2022-09-17T12:15:28.544Z, 40.10
2022-09-17T12:16:28.630Z, 40.11
2022-09-17T12:17:28.593Z, 40.24
2022-09-17T12:18:32.374Z, 39.52
2022-09-17T12:19:28.666Z, 40.02
2022-09-17T12:20:28.657Z, 40.17
2022-09-17T12:21:28.705Z, 39.92
2022-09-17T12:22:28.818Z, 40.02
2022-09-17T12:23:29.062Z, 40.48
2022-09-17T12:24:28.853Z, 40.46
2022-09-17T12:25:28.856Z, 40.16
2022-09-17T12:26:28.877Z, 40.20